createdAt,value
2023-01-06T00:06:50.813Z,3.33
2023-01-06T00:09:18.031Z,3.67
2023-01-06T00:11:45.549Z,3.03
2023-01-06T00:14:12.994Z,3.03
2023-01-06T00:16:40.187Z,3.50
2023-01-06T00:58:42.494Z,3.60
2023-01-06T01:01:10.599Z,3.53
2023-01-06T01:03:39.107Z,3.80
2023-01-06T01:06:24.865Z,3.37
2023-01-06T01:09:13.384Z,4.10
2023-01-06T01:11:40.723Z,3.57
2023-01-06T01:14:09.483Z,3.40
2023-01-06T01:16:36.793Z,3.93
2023-01-06T01:19:04.245Z,4.17
2023-01-06T01:21:31.453Z,3.43
2023-01-06T01:24:14.161Z,4.03
2023-01-06T01:26:41.472Z,4.00
2023-01-06T01:29:11.748Z,4.43
2023-01-06T01:31:38.988Z,3.83
2023-01-06T01:38:00.038Z,3.30
2023-01-06T01:40:27.271Z,3.70
2023-01-06T01:42:54.610Z,3.27
2023-01-06T01:45:24.447Z,3.40
2023-01-06T01:47:53.322Z,3.90
2023-01-06T01:50:31.629Z,3.60
2023-01-06T02:45:35.880Z,2.40
2023-01-06T02:48:09.537Z,2.47
2023-01-06T02:50:41.047Z,2.73
2023-01-06T02:53:12.099Z,2.83
2023-01-06T02:55:44.030Z,3.10
2023-01-06T02:58:13.787Z,3.53
2023-01-06T03:00:44.160Z,2.40
2023-01-06T03:03:16.517Z,2.67
2023-01-06T03:05:46.021Z,2.90
2023-01-06T03:08:16.310Z,2.87
2023-01-06T03:10:45.431Z,2.90
2023-01-06T03:13:17.884Z,2.80
2023-01-06T03:15:47.097Z,3.20
2023-01-06T03:18:14.873Z,2.67
2023-01-06T03:20:42.371Z,2.83
2023-01-06T03:23:09.730Z,2.67
2023-01-06T03:25:38.600Z,3.13
2023-01-06T03:28:06.618Z,2.80
2023-01-06T03:30:38.167Z,2.97
2023-01-06T03:33:12.670Z,3.10
2023-01-06T03:35:56.537Z,3.00
2023-01-06T03:38:29.856Z,3.20
2023-01-06T03:41:00.156Z,2.93
2023-01-06T04:14:55.934Z,2.63
2023-01-06T04:17:23.425Z,2.77
2023-01-06T04:19:51.625Z,2.70
2023-01-06T04:22:20.488Z,2.50
2023-01-06T04:24:47.897Z,3.00
2023-01-06T04:44:12.992Z,3.00
2023-01-06T04:46:40.331Z,3.03
2023-01-06T04:49:07.706Z,2.70
2023-01-06T04:51:34.969Z,2.90
2023-01-06T04:54:02.341Z,2.90
2023-01-06T04:56:29.738Z,3.00
2023-01-06T04:58:57.419Z,2.60
2023-01-06T05:01:26.613Z,2.93
2023-01-06T05:03:54.247Z,2.70
2023-01-06T05:06:21.656Z,2.77
2023-01-06T05:08:48.980Z,2.97
2023-01-06T05:11:17.621Z,3.07
2023-01-06T05:13:44.938Z,3.00
2023-01-06T05:16:15.357Z,2.50
2023-01-06T05:18:44.226Z,3.23
2023-01-06T05:21:11.598Z,3.03
2023-01-06T05:23:38.919Z,2.50
2023-01-06T05:26:06.404Z,2.93
2023-01-06T06:03:09.520Z,2.97
2023-01-06T06:05:36.782Z,3.40
2023-01-06T06:08:04.078Z,2.93
2023-01-06T06:10:31.272Z,2.90
2023-01-06T06:16:52.422Z,2.00
2023-01-06T06:19:21.120Z,2.80
2023-01-06T06:21:48.398Z,2.20
2023-01-06T06:24:15.931Z,2.43
2023-01-06T06:26:43.205Z,2.50
2023-01-06T06:29:10.520Z,2.13
2023-01-06T07:31:48.523Z,3.83
2023-01-06T07:34:15.793Z,3.63
2023-01-06T07:36:43.066Z,3.73
2023-01-06T07:39:10.275Z,3.00
2023-01-06T07:41:37.494Z,2.87
2023-01-06T07:44:08.510Z,3.40
2023-01-06T07:47:01.025Z,3.03
2023-01-06T07:49:30.431Z,3.27
2023-01-06T07:51:57.820Z,2.90
2023-01-06T07:54:25.184Z,2.80
2023-01-06T07:56:52.426Z,3.57
2023-01-06T07:59:19.677Z,2.90
2023-01-06T08:01:47.200Z,3.30
2023-01-06T08:21:08.615Z,2.67
2023-01-06T08:23:36.776Z,2.43
2023-01-06T08:26:04.509Z,2.70
2023-01-06T08:28:32.037Z,2.30
2023-01-06T08:30:59.411Z,3.47
2023-01-06T08:33:26.795Z,2.40
2023-01-06T08:35:58.471Z,2.97
2023-01-06T08:38:27.197Z,2.30
2023-01-06T08:40:54.459Z,2.63
2023-01-06T08:43:21.846Z,2.53
2023-01-06T08:45:49.219Z,2.77
2023-01-06T08:48:16.508Z,3.20
2023-01-06T08:50:46.396Z,2.90
2023-01-06T08:53:35.505Z,3.23
2023-01-06T08:56:04.355Z,2.60
2023-01-06T08:58:31.715Z,3.23
2023-01-06T09:00:59.100Z,2.70
2023-01-06T09:03:26.388Z,2.80
2023-01-06T09:05:54.262Z,2.67
2023-01-06T10:12:06.857Z,2.90
2023-01-06T10:14:39.373Z,2.40
2023-01-06T10:17:17.554Z,2.27
2023-01-06T10:19:51.370Z,2.40
2023-01-06T10:22:23.522Z,2.83
2023-01-06T10:24:54.204Z,2.30
2023-01-06T10:27:26.460Z,2.23
2023-01-06T10:29:55.322Z,3.07
2023-01-06T10:32:22.958Z,2.50
2023-01-06T10:34:52.590Z,3.30
2023-01-06T10:37:24.360Z,2.23
2023-01-06T10:39:56.539Z,2.00
2023-01-06T10:42:27.937Z,2.70
2023-01-06T10:44:55.165Z,2.23
2023-01-06T10:47:25.051Z,2.10
2023-01-06T10:49:52.535Z,2.80
2023-01-06T10:52:20.361Z,2.17
2023-01-06T10:54:48.763Z,3.07
2023-01-06T10:57:20.532Z,1.93
2023-01-06T11:00:06.598Z,3.33
2023-01-06T11:02:35.347Z,2.30
2023-01-06T11:05:03.479Z,2.57
2023-01-06T11:10:44.360Z,2.50
2023-01-06T11:13:22.010Z,1.70
2023-01-06T11:15:49.696Z,2.37
2023-01-06T11:18:22.630Z,2.70
2023-01-06T11:21:02.229Z,3.03
2023-01-06T11:23:49.437Z,3.27
2023-01-06T11:26:18.169Z,2.50
2023-01-06T11:28:45.860Z,2.43
2023-01-06T11:31:17.798Z,2.60
2023-01-06T11:34:19.405Z,3.00
2023-01-06T11:37:05.216Z,2.73
2023-01-06T11:39:36.105Z,2.10
2023-01-06T11:42:04.874Z,1.97
2023-01-06T11:44:33.417Z,3.37
2023-01-06T11:47:02.117Z,2.20
2023-01-06T11:49:30.837Z,2.60
2023-01-06T11:52:21.075Z,3.50
2023-01-06T11:54:57.076Z,2.77
2023-01-06T11:57:29.479Z,2.73
2023-01-06T12:00:09.332Z,2.97
2023-01-06T12:06:32.476Z,2.57
2023-01-06T12:09:46.151Z,2.50
2023-01-06T12:12:18.125Z,2.53
2023-01-06T12:14:46.288Z,2.33
2023-01-06T12:17:16.371Z,2.83
2023-01-06T12:19:46.266Z,2.10
2023-01-06T12:22:34.552Z,2.40
2023-01-06T12:25:02.071Z,2.23
2023-01-06T12:27:36.116Z,2.30
2023-01-06T12:30:05.655Z,2.37
2023-01-06T12:39:40.538Z,2.27
2023-01-06T12:42:12.346Z,2.60
2023-01-06T12:44:44.136Z,2.33
2023-01-06T12:47:14.038Z,2.97
2023-01-06T12:49:43.999Z,2.27
2023-01-06T12:52:25.079Z,2.00
2023-01-06T12:54:53.519Z,2.20
2023-01-06T12:57:27.457Z,2.10
2023-01-06T13:00:04.099Z,2.47
2023-01-06T13:02:53.319Z,2.20
2023-01-06T13:05:42.423Z,1.73
2023-01-06T13:08:17.335Z,2.13
2023-01-06T13:10:46.608Z,2.20
2023-01-06T13:13:31.817Z,2.10
2023-01-06T13:16:01.947Z,2.20
2023-01-06T13:18:33.243Z,2.37
2023-01-06T13:21:03.248Z,2.20
2023-01-06T14:00:15.829Z,2.33
2023-01-06T14:03:00.140Z,2.00
2023-01-06T14:05:46.029Z,2.03
2023-01-06T14:08:35.077Z,2.10
2023-01-06T14:11:21.401Z,2.03
2023-01-06T14:13:50.894Z,2.47
2023-01-06T14:16:19.784Z,1.90
2023-01-06T14:18:48.162Z,1.83
2023-01-06T14:21:27.503Z,2.00
2023-01-06T14:24:00.082Z,2.53
2023-01-06T14:43:20.900Z,2.37
2023-01-06T14:45:48.955Z,2.13
2023-01-06T14:48:17.528Z,3.30
2023-01-06T14:50:47.761Z,2.30
2023-01-06T14:53:19.597Z,2.17
2023-01-06T15:26:56.802Z,2.60
2023-01-06T15:29:26.057Z,2.90
2023-01-06T15:31:54.201Z,3.20
2023-01-06T15:34:22.659Z,2.67
2023-01-06T15:37:09.656Z,2.93
2023-01-06T15:39:39.309Z,2.67
2023-01-06T15:42:09.796Z,3.60
2023-01-06T15:44:39.435Z,3.20
2023-01-06T15:47:09.511Z,2.80
2023-01-06T15:49:38.413Z,3.00
2023-01-06T15:52:06.419Z,3.17
2023-01-06T16:28:20.305Z,3.33
2023-01-06T16:31:02.532Z,2.67
2023-01-06T16:33:34.704Z,2.90
2023-01-06T16:36:01.951Z,2.90
2023-01-06T16:38:29.174Z,3.37
2023-01-06T16:40:56.501Z,3.23
2023-01-06T16:43:25.468Z,2.30
2023-01-06T16:45:53.212Z,3.13
2023-01-06T16:48:20.519Z,3.07
2023-01-06T16:51:09.421Z,3.40
2023-01-06T16:56:36.604Z,3.20
2023-01-06T16:59:09.296Z,3.63
2023-01-06T17:01:36.697Z,3.23
2023-01-06T17:04:04.095Z,3.90
2023-01-06T17:06:31.918Z,3.53
2023-01-06T17:57:32.416Z,5.93
2023-01-06T17:59:59.648Z,5.73
2023-01-06T18:02:35.481Z,6.93
2023-01-06T18:05:11.419Z,6.83
2023-01-06T18:07:38.778Z,5.93
2023-01-06T18:10:11.744Z,6.03
2023-01-06T18:12:40.474Z,6.53
2023-01-06T18:15:22.983Z,6.70
2023-01-06T18:17:50.234Z,6.73
2023-01-06T18:20:17.881Z,6.53
2023-01-06T18:22:45.283Z,7.27
2023-01-06T18:25:17.586Z,6.80
2023-01-06T18:27:46.260Z,8.07
2023-01-06T18:30:17.148Z,8.77
2023-01-06T18:32:44.821Z,8.77
2023-01-06T18:35:16.732Z,8.47
2023-01-06T19:00:27.717Z,13.00
2023-01-06T19:02:57.440Z,12.57
2023-01-06T19:05:26.121Z,13.30
2023-01-06T19:07:54.769Z,12.00
2023-01-06T19:10:24.657Z,12.53
2023-01-06T20:03:29.616Z,9.50
2023-01-06T20:05:56.872Z,8.47
2023-01-06T20:08:24.185Z,10.07
2023-01-06T20:10:51.464Z,10.33
2023-01-06T20:13:18.800Z,9.73
2023-01-06T20:15:46.059Z,9.53
2023-01-06T20:18:13.332Z,9.97
2023-01-06T20:20:43.950Z,9.77
2023-01-06T20:23:11.265Z,9.93
2023-01-06T20:25:38.476Z,10.13
2023-01-06T20:28:39.910Z,9.70
2023-01-06T20:31:25.817Z,10.53
2023-01-06T20:33:53.114Z,10.10
2023-01-06T20:36:21.657Z,8.53
2023-01-06T20:38:48.928Z,9.30
2023-01-06T20:41:16.283Z,9.77
2023-01-06T20:43:43.548Z,10.57
2023-01-06T20:46:20.096Z,9.83
2023-01-06T20:48:47.732Z,9.80
2023-01-06T20:51:15.103Z,12.40
2023-01-06T20:53:43.675Z,9.70
2023-01-06T20:56:24.956Z,10.17
2023-01-06T20:59:15.097Z,10.50
2023-01-06T21:01:42.723Z,9.37
2023-01-06T21:04:10.081Z,9.73
2023-01-06T21:06:37.351Z,12.27
2023-01-06T21:09:05.958Z,10.57
2023-01-06T21:11:33.274Z,9.70
2023-01-06T21:14:01.708Z,10.37
2023-01-06T21:16:29.042Z,11.97
2023-01-06T21:18:56.307Z,12.20
2023-01-06T21:21:23.592Z,11.13
2023-01-06T21:23:50.877Z,10.17
2023-01-06T21:26:22.504Z,11.40
2023-01-06T21:28:49.779Z,11.20
2023-01-06T21:31:37.606Z,12.50
2023-01-06T21:34:04.805Z,11.57
2023-01-06T21:36:35.260Z,11.93
2023-01-06T21:39:02.525Z,12.97
2023-01-06T21:41:31.169Z,12.90
2023-01-06T21:43:58.423Z,13.97
2023-01-06T21:46:25.715Z,14.40
2023-01-06T21:48:52.977Z,13.37
2023-01-06T21:51:20.520Z,12.53
2023-01-06T21:53:47.947Z,13.37
2023-01-06T21:56:15.225Z,12.63
2023-01-06T21:58:44.273Z,11.50
2023-01-06T22:05:05.832Z,10.97
2023-01-06T22:07:34.547Z,10.93
2023-01-06T22:10:04.417Z,10.13
2023-01-06T22:12:33.067Z,9.87
2023-01-06T22:15:01.894Z,10.30
2023-01-06T22:17:47.498Z,9.80
2023-01-06T22:20:14.862Z,9.33
2023-01-06T22:22:42.309Z,9.63
2023-01-06T22:25:09.713Z,9.67
2023-01-06T22:27:37.045Z,9.23
2023-01-06T22:30:06.216Z,8.40
2023-01-06T22:32:52.373Z,8.63
2023-01-06T22:35:19.672Z,9.40
2023-01-06T22:37:46.929Z,9.03
2023-01-06T22:40:15.016Z,9.10
2023-01-06T22:46:13.310Z,8.47
2023-01-06T22:48:40.701Z,8.10
2023-01-06T22:51:08.051Z,7.03
2023-01-06T22:53:35.325Z,7.13
2023-01-06T22:56:03.674Z,8.37
2023-01-06T22:58:31.613Z,7.33
2023-01-06T23:01:17.850Z,7.30
2023-01-06T23:03:46.618Z,7.67
2023-01-06T23:06:15.000Z,8.27
2023-01-06T23:08:58.432Z,7.67
2023-01-06T23:15:02.848Z,7.07
2023-01-06T23:17:30.254Z,7.77
2023-01-06T23:19:58.835Z,7.80
2023-01-06T23:22:26.067Z,7.47
2023-01-06T23:24:53.360Z,7.47
2023-01-06T23:27:20.572Z,7.53
